Time;durP1;ratioP1;P1;durP2;ratioP2;P2;SDS_P1;SDS_P2;PMS_P1;PMS_P2;Temp;Humidity;BMP_temperature;BMP_pressure;BME280_temperature;BME280_humidity;BME280_pressure;Samples;Min_cycle;Max_cycle;Signal;HPM_P1;HPM_P2
2021/11/01 00:00:17;;;;;;;0.50;0.50;;;;;;;3.56;98.77;100332.13;5050408;28;20049;-72
2021/11/01 00:02:44;;;;;;;0.40;0.40;;;;;;;3.52;98.97;100338.63;5050775;28;20091;-72
2021/11/01 00:05:11;;;;;;;0.40;0.40;;;;;;;3.53;99.11;100337.66;5017687;28;20481;-72
2021/11/01 00:07:38;;;;;;;0.40;0.40;;;;;;;3.53;99.05;100336.81;5001399;28;20059;-71
2021/11/01 00:10:05;;;;;;;0.50;0.50;;;;;;;3.44;99.28;100324.84;5033485;28;20048;-72
2021/11/01 00:12:31;;;;;;;0.50;0.50;;;;;;;3.39;99.66;100326.91;5015443;28;20123;-69
2021/11/01 00:14:58;;;;;;;0.50;0.50;;;;;;;3.33;99.86;100336.16;5032664;28;20120;-69
2021/11/01 00:17:25;;;;;;;0.40;0.40;;;;;;;3.27;99.85;100332.97;5016094;28;20080;-71
2021/11/01 00:19:54;;;;;;;0.50;0.50;;;;;;;3.18;99.92;100333.47;5032507;28;20134;-71
2021/11/01 00:22:21;;;;;;;0.40;0.40;;;;;;;3.20;100.00;100340.47;5032117;28;20060;-69
2021/11/01 00:24:48;;;;;;;0.40;0.40;;;;;;;3.20;100.00;100342.28;5050022;28;20049;-69
2021/11/01 00:27:15;;;;;;;0.50;0.50;;;;;;;3.14;100.00;100339.03;5032548;28;20061;-70
2021/11/01 00:29:41;;;;;;;0.40;0.40;;;;;;;3.11;100.00;100339.19;5051055;28;20049;-72
2021/11/01 00:32:07;;;;;;;0.50;0.50;;;;;;;3.08;100.00;100334.03;5032138;28;20049;-70
2021/11/01 00:34:33;;;;;;;0.50;0.50;;;;;;;3.05;100.00;100336.88;5026063;28;20513;-70
2021/11/01 00:36:59;;;;;;;0.47;0.47;;;;;;;3.05;100.00;100338.69;5050661;28;20521;-69
2021/11/01 00:39:25;;;;;;;0.50;0.50;;;;;;;3.03;100.00;100346.75;5050324;28;20061;-70
2021/11/01 00:41:51;;;;;;;0.50;0.50;;;;;;;3.01;100.00;100354.00;5050520;28;20143;-68
2021/11/01 00:44:17;;;;;;;0.40;0.40;;;;;;;3.06;100.00;100343.91;5049801;28;20052;-69
2021/11/01 00:46:43;;;;;;;0.40;0.40;;;;;;;3.02;100.00;100350.38;5032498;28;20064;-70
2021/11/01 00:49:09;;;;;;;0.40;0.40;;;;;;;2.96;100.00;100340.03;5032297;28;20052;-67
2021/11/01 00:51:41;;;;;;;0.50;0.50;;;;;;;2.98;100.00;100338.16;5050265;28;20163;-69
2021/11/01 00:54:11;;;;;;;0.50;0.50;;;;;;;2.93;100.00;100340.22;5049808;28;20055;-70
2021/11/01 00:56:37;;;;;;;0.50;0.50;;;;;;;2.92;100.00;100343.81;5050198;28;20060;-71
2021/11/01 00:59:04;;;;;;;0.45;0.45;;;;;;;2.90;100.00;100340.41;5032100;28;20060;-69
2021/11/01 01:01:32;;;;;;;0.50;0.50;;;;;;;2.87;100.00;100340.56;5031462;28;20123;-69
2021/11/01 01:03:59;;;;;;;0.43;0.43;;;;;;;2.89;100.00;100339.53;5031769;28;20048;-69
2021/11/01 01:06:25;;;;;;;0.50;0.50;;;;;;;2.86;100.00;100349.53;5031824;28;20045;-69
2021/11/01 01:08:51;;;;;;;0.60;0.60;;;;;;;2.86;100.00;100338.84;5049753;28;20051;-70
2021/11/01 01:11:17;;;;;;;0.50;0.50;;;;;;;2.87;100.00;100340.56;5031794;28;20053;-69
2021/11/01 01:13:43;;;;;;;0.50;0.50;;;;;;;2.82;100.00;100326.63;5031036;28;20107;-68
2021/11/01 01:18:39;;;;;;;0.50;0.50;;;;;;;2.75;100.00;100333.25;5049746;28;20055;-69
2021/11/01 01:23:51;;;;;;;0.50;0.50;;;;;;;2.76;100.00;100327.81;5047716;28;20232;-70
2021/11/01 01:26:17;;;;;;;0.50;0.50;;;;;;;2.85;100.00;100323.75;5048399;28;20071;-69
2021/11/01 01:28:43;;;;;;;0.50;0.50;;;;;;;2.83;100.00;100328.34;5031985;28;20053;-69
2021/11/01 01:31:10;;;;;;;0.50;0.50;;;;;;;2.79;100.00;100332.13;5049550;28;20234;-70
2021/11/01 01:33:37;;;;;;;0.55;0.55;;;;;;;2.79;100.00;100324.13;5023000;28;20052;-68
2021/11/01 01:36:04;;;;;;;0.50;0.50;;;;;;;2.74;100.00;100323.50;5032756;28;20063;-70
2021/11/01 01:38:30;;;;;;;0.50;0.50;;;;;;;2.71;100.00;100319.22;5031554;28;20532;-69
2021/11/01 01:40:56;;;;;;;0.50;0.50;;;;;;;2.74;100.00;100323.50;5031887;28;20516;-71
2021/11/01 01:43:22;;;;;;;0.50;0.50;;;;;;;2.74;100.00;100328.84;5049998;28;20061;-70
2021/11/01 01:45:48;;;;;;;0.50;0.50;;;;;;;2.75;100.00;100325.25;5035675;28;20110;-70
2021/11/01 01:48:15;;;;;;;0.50;0.50;;;;;;;2.74;100.00;100328.84;5053656;28;20053;-71
2021/11/01 01:50:41;;;;;;;0.50;0.50;;;;;;;2.77;100.00;100328.66;5018057;28;20044;-74
2021/11/01 01:53:07;;;;;;;0.50;0.50;;;;;;;2.80;100.00;100328.50;5033332;28;20061;-70
2021/11/01 01:55:36;;;;;;;0.50;0.50;;;;;;;2.85;100.00;100331.75;5053113;28;20057;-71
2021/11/01 01:58:02;;;;;;;0.50;0.50;;;;;;;2.85;100.00;100332.66;5053660;28;20088;-72
2021/11/01 02:02:55;;;;;;;0.50;0.50;;;;;;;2.83;100.00;100323.00;5052099;28;20106;-70
2021/11/01 02:05:21;;;;;;;0.50;0.50;;;;;;;2.85;100.00;100327.31;5032882;28;20529;-71
2021/11/01 02:07:52;;;;;;;0.50;0.50;;;;;;;2.81;100.00;100325.72;5050683;28;20052;-70
2021/11/01 02:10:22;;;;;;;0.50;0.50;;;;;;;2.83;100.00;100325.66;5015611;28;20057;-69
2021/11/01 02:12:50;;;;;;;0.50;0.50;;;;;;;2.81;100.00;100327.53;5050757;28;20064;-69
2021/11/01 02:15:19;;;;;;;0.50;0.50;;;;;;;2.78;100.00;100325.03;5051428;28;20041;-69
2021/11/01 02:17:47;;;;;;;0.50;0.50;;;;;;;2.74;100.00;100318.16;5053000;28;20118;-70
2021/11/01 02:20:20;;;;;;;0.50;0.50;;;;;;;2.71;100.00;100323.69;5034145;28;20053;-68
2021/11/01 02:23:07;;;;;;;0.50;0.50;;;;;;;2.70;100.00;100335.28;5034965;28;20079;-70
2021/11/01 02:25:40;;;;;;;0.57;0.57;;;;;;;2.69;100.00;100330.91;5034995;28;20143;-68
2021/11/01 02:28:08;;;;;;;0.50;0.50;;;;;;;2.66;100.00;100335.44;5052512;28;20680;-70
2021/11/01 02:30:36;;;;;;;0.50;0.50;;;;;;;2.76;100.00;100326.94;5033823;28;20430;-71
2021/11/01 02:33:02;;;;;;;0.40;0.40;;;;;;;2.76;100.00;100333.16;5051039;28;20072;-69
2021/11/01 02:35:28;;;;;;;0.50;0.50;;;;;;;2.76;100.00;100332.28;5035750;28;20121;-71
2021/11/01 02:37:54;;;;;;;0.50;0.50;;;;;;;2.74;100.00;100334.16;5053415;28;20130;-71
2021/11/01 02:40:26;;;;;;;0.50;0.50;;;;;;;2.75;100.00;100335.91;5037036;28;20056;-70
2021/11/01 02:42:53;;;;;;;0.50;0.50;;;;;;;2.78;100.00;100335.72;5052746;28;20190;-71
2021/11/01 02:45:19;;;;;;;0.40;0.40;;;;;;;2.75;100.00;100335.91;5035861;28;20077;-70
2021/11/01 02:47:45;;;;;;;0.50;0.50;;;;;;;2.74;100.00;100334.16;5022740;28;20432;-71
2021/11/01 02:50:13;;;;;;;0.50;0.50;;;;;;;2.72;100.00;100331.59;5042921;28;20049;-68
2021/11/01 02:52:39;;;;;;;0.50;0.50;;;;;;;2.72;100.00;100330.75;5032765;28;20167;-70
2021/11/01 02:55:06;;;;;;;0.50;0.50;;;;;;;2.69;100.00;100338.91;5015454;28;20123;-70
2021/11/01 02:57:33;;;;;;;0.50;0.50;;;;;;;2.69;100.00;100330.91;5014516;28;20096;-71
2021/11/01 03:00:00;;;;;;;0.50;0.50;;;;;;;2.68;100.00;100334.53;5046475;28;20060;-71
2021/11/01 03:02:25;;;;;;;0.50;0.50;;;;;;;2.68;100.00;100330.06;5017489;28;20057;-70
2021/11/01 03:04:51;;;;;;;0.50;0.50;;;;;;;2.62;100.00;100330.38;5017826;28;20395;-70
2021/11/01 03:07:18;;;;;;;0.50;0.50;;;;;;;2.61;100.00;100334.00;5017635;28;20451;-70
2021/11/01 03:09:45;;;;;;;0.50;0.50;;;;;;;2.58;100.00;100345.69;5017353;28;20118;-71
2021/11/01 03:12:13;;;;;;;0.50;0.50;;;;;;;2.50;100.00;100341.72;5050685;28;20053;-70
2021/11/01 03:14:49;;;;;;;0.50;0.50;;;;;;;2.44;100.00;100342.91;5050462;28;20464;-70
2021/11/01 03:17:18;;;;;;;0.50;0.50;;;;;;;2.39;100.00;100339.63;5052229;28;20059;-76
2021/11/01 03:19:52;;;;;;;0.50;0.50;;;;;;;2.28;100.00;100326.88;5033479;28;20045;-70
2021/11/01 03:22:18;;;;;;;0.50;0.50;;;;;;;2.32;100.00;100343.56;5034479;28;20045;-73
2021/11/01 03:24:50;;;;;;;0.50;0.50;;;;;;;2.27;100.00;100345.63;5034684;28;20057;-76
2021/11/01 03:27:17;;;;;;;0.47;0.47;;;;;;;2.26;100.00;100343.91;5033925;28;20049;-72
2021/11/01 03:29:43;;;;;;;0.50;0.50;;;;;;;2.24;100.00;100340.47;5030382;28;20120;-76
2021/11/01 03:32:10;;;;;;;0.50;0.50;;;;;;;2.24;100.00;100340.47;5034597;28;20053;-74
2021/11/01 03:34:36;;;;;;;0.50;0.50;;;;;;;2.20;100.00;100341.56;5051531;28;20053;-74
2021/11/01 03:37:09;;;;;;;0.50;0.50;;;;;;;2.18;100.00;100339.81;5020442;28;20072;-73
2021/11/01 03:39:37;;;;;;;0.50;0.50;;;;;;;2.12;100.00;100329.50;5033867;28;20052;-73
2021/11/01 03:42:05;;;;;;;0.50;0.50;;;;;;;2.08;100.00;100327.06;5052241;28;20472;-72
2021/11/01 03:44:33;;;;;;;0.50;0.50;;;;;;;2.08;100.00;100341.25;5050746;28;20485;-72
2021/11/01 03:47:02;;;;;;;0.50;0.50;;;;;;;2.06;100.00;100336.97;5034479;28;20453;-78
2021/11/01 03:49:30;;;;;;;0.50;0.50;;;;;;;2.04;100.00;100338.81;5032981;28;20125;-72
2021/11/01 03:52:11;;;;;;;0.50;0.50;;;;;;;2.00;100.00;100324.78;5034799;28;20117;-73
2021/11/01 03:54:38;;;;;;;0.50;0.50;;;;;;;1.96;100.00;100325.91;5037561;28;20053;-75
2021/11/01 03:57:06;;;;;;;0.50;0.50;;;;;;;1.96;100.00;100327.72;5036812;28;20076;-78
2021/11/01 03:59:33;;;;;;;0.60;0.60;;;;;;;1.93;100.00;100323.38;5049218;28;20056;-77
2021/11/01 04:01:58;;;;;;;0.60;0.60;;;;;;;1.87;100.00;100323.72;5032991;28;20068;-76
2021/11/01 04:04:24;;;;;;;0.50;0.50;;;;;;;1.88;100.00;100323.63;5031683;28;20057;-73
2021/11/01 04:06:50;;;;;;;0.50;0.50;;;;;;;1.83;100.00;100319.47;5016185;28;20565;-75
2021/11/01 04:09:17;;;;;;;0.57;0.57;;;;;;;1.83;100.00;100324.81;5036746;28;20084;-73
2021/11/01 04:11:49;;;;;;;0.50;0.50;;;;;;;1.81;100.00;100327.56;5020958;28;20053;-73
2021/11/01 04:14:21;;;;;;;0.50;0.50;;;;;;;1.78;100.00;100321.53;5038719;28;20044;-73
2021/11/01 04:16:49;;;;;;;0.50;0.50;;;;;;;1.74;100.00;100320.81;5038436;28;20049;-73
2021/11/01 04:21:42;;;;;;;0.60;0.60;;;;;;;1.71;100.00;100320.13;5054251;28;20065;-72
2021/11/01 04:24:09;;;;;;;0.50;0.50;;;;;;;1.73;100.00;100318.25;5037076;28;20083;-72
2021/11/01 04:26:35;;;;;;;0.50;0.50;;;;;;;1.67;100.00;100320.25;5038145;28;20065;-72
2021/11/01 04:29:04;;;;;;;0.50;0.50;;;;;;;1.69;100.00;100313.06;5036960;28;20049;-72
2021/11/01 04:31:33;;;;;;;0.50;0.50;;;;;;;1.66;100.00;100310.56;5037730;28;20088;-73
2021/11/01 04:34:10;;;;;;;0.50;0.50;;;;;;;1.61;100.00;100309.06;5054512;28;20123;-71
2021/11/01 04:36:38;;;;;;;0.50;0.50;;;;;;;1.65;100.00;100322.16;5051998;28;20161;-73
2021/11/01 04:39:10;;;;;;;0.60;0.60;;;;;;;1.67;100.00;100322.94;5045273;28;20071;-73
2021/11/01 04:42:22;;;;;;;0.60;0.60;;;;;;;1.65;100.00;100322.16;5019867;28;20441;-73
2021/11/01 04:55:28;;;;;;;0.60;0.60;;;;;;;1.65;100.00;100311.50;5016339;28;20057;-75
2021/11/01 04:57:55;;;;;;;0.50;0.50;;;;;;;1.66;100.00;100318.53;4984595;28;20112;-73
2021/11/01 05:00:21;;;;;;;0.52;0.52;;;;;;;1.67;100.00;100320.25;5017489;28;20060;-75
2021/11/01 05:02:55;;;;;;;0.60;0.60;;;;;;;1.67;100.00;100330.94;5033444;28;20417;-74
2021/11/01 05:05:20;;;;;;;0.57;0.57;;;;;;;1.66;100.00;100329.22;5018158;28;20057;-75
2021/11/01 05:07:46;;;;;;;0.60;0.60;;;;;;;1.72;100.00;100328.06;5017881;28;20053;-72
2021/11/01 05:10:20;;;;;;;0.60;0.60;;;;;;;1.70;100.00;100324.59;5033153;28;20502;-74
2021/11/01 05:12:46;;;;;;;0.60;0.60;;;;;;;1.62;100.00;100314.31;4998253;28;20525;-76
2021/11/01 05:18:00;;;;;;;0.70;0.70;;;;;;;1.96;100.00;100336.56;5016945;28;20052;-74
2021/11/01 05:20:33;;;;;;;0.70;0.70;;;;;;;2.18;100.00;100314.97;5032263;28;20049;-75
2021/11/01 05:28:03;;;;;;;0.70;0.70;;;;;;;3.28;98.66;100324.00;5048621;28;20111;-72
2021/11/01 05:30:36;;;;;;;0.70;0.70;;;;;;;3.69;97.20;100334.09;5032746;28;20105;-75
2021/11/01 05:33:05;;;;;;;0.70;0.70;;;;;;;4.07;95.73;100321.94;5017369;28;20542;-74
2021/11/01 05:35:32;;;;;;;0.70;0.70;;;;;;;4.28;93.65;100333.16;5012420;28;20160;-75
2021/11/01 05:37:58;;;;;;;0.70;0.70;;;;;;;4.66;92.68;100339.75;4998010;28;20103;-75
2021/11/01 05:40:24;;;;;;;0.70;0.70;;;;;;;4.73;90.59;100335.75;5015037;28;20152;-73
2021/11/01 05:42:50;;;;;;;0.70;0.70;;;;;;;5.01;89.56;100338.38;4997883;28;20050;-75
2021/11/01 05:45:16;;;;;;;0.70;0.70;;;;;;;5.39;89.64;100342.19;5003942;28;20117;-74
2021/11/01 05:47:45;;;;;;;0.70;0.70;;;;;;;5.76;87.86;100340.59;4999944;28;20072;-74
2021/11/01 05:50:12;;;;;;;0.80;0.80;;;;;;;6.33;88.20;100344.78;5016414;28;20048;-74
2021/11/01 05:52:38;;;;;;;0.70;0.70;;;;;;;6.64;84.31;100338.09;5015886;28;20049;-75
2021/11/01 05:55:14;;;;;;;0.80;0.80;;;;;;;7.25;86.16;100334.53;4998263;28;20087;-75
2021/11/01 06:03:46;;;;;;;0.80;0.80;;;;;;;7.63;80.43;100335.31;5067763;28;20075;-74
2021/11/01 06:13:27;;;;;;;0.80;0.80;;;;;;;7.76;72.49;100338.81;5087685;23;20535;-75
2021/11/01 06:15:54;;;;;;;0.80;0.80;;;;;;;7.98;72.19;100344.28;5026924;28;20525;-75
2021/11/01 06:18:23;;;;;;;1.00;1.00;;;;;;;8.30;71.20;100343.63;5047933;28;20052;-74
2021/11/01 06:20:49;;;;;;;0.90;0.90;;;;;;;8.35;70.18;100340.56;5031515;28;20119;-76
2021/11/01 06:23:15;;;;;;;0.90;0.90;;;;;;;8.48;69.65;100345.88;5048297;28;20203;-78
2021/11/01 06:25:41;;;;;;;0.90;0.90;;;;;;;8.93;67.67;100350.31;5017803;28;20535;-70
2021/11/01 06:28:12;;;;;;;1.00;1.00;;;;;;;9.42;67.37;100345.44;5028733;28;20419;-76
2021/11/01 06:30:45;;;;;;;1.00;1.00;;;;;;;10.26;64.47;100349.16;5015526;28;20473;-76
2021/11/01 06:33:42;;;;;;;0.93;0.93;;;;;;;10.89;61.80;100348.19;5049505;28;20103;-74
2021/11/01 06:55:10;;;;;;;0.90;0.90;;;;;;;12.87;52.79;100352.41;5042781;28;20235;-73
2021/11/01 06:57:32;;;;;;;0.70;0.70;;;;;;;11.37;56.98;100347.50;5040205;28;20056;-74
2021/11/01 07:16:33;;;;;;;0.70;0.70;;;;;;;13.39;51.12;100360.91;5046804;28;20510;-73
2021/11/01 07:19:06;;;;;;;1.00;1.00;;;;;;;13.37;50.81;100354.75;5036073;28;20044;-73
2021/11/01 08:35:08;;;;;;;1.05;1.05;;;;;;;15.29;44.55;100363.09;5044716;28;20057;-73
2021/11/01 08:45:48;;;;;;;1.20;1.20;;;;;;;16.60;42.47;100362.28;5043776;28;20602;-73
2021/11/01 08:48:30;;;;;;;1.10;1.10;;;;;;;16.80;41.58;100357.31;5015553;28;20059;-73
2021/11/01 08:51:16;;;;;;;1.20;1.20;;;;;;;16.22;43.02;100349.34;5016427;28;20476;-73
2021/11/01 09:07:41;;;;;;;1.10;1.10;;;;;;;18.25;39.36;100366.00;5030579;28;20106;-74
2021/11/01 09:13:23;;;;;;;0.90;0.90;;;;;;;17.73;39.68;100355.72;5044579;28;19955;-73
2021/11/01 09:21:19;;;;;;;1.00;1.00;;;;;;;17.51;40.41;100354.66;5047121;28;20483;-74
2021/11/01 09:26:15;;;;;;;1.00;1.00;;;;;;;17.63;40.12;100357.84;5024390;28;20045;-74
2021/11/01 09:28:52;;;;;;;1.00;1.00;;;;;;;17.88;39.42;100351.22;5052588;28;20053;-74
2021/11/01 09:36:51;;;;;;;0.90;0.90;;;;;;;16.59;42.26;100343.34;5052436;28;20076;-74
2021/11/01 09:39:41;;;;;;;1.00;1.00;;;;;;;16.18;43.48;100361.63;5040851;28;20078;-74
2021/11/01 09:42:08;;;;;;;0.80;0.80;;;;;;;16.25;43.47;100344.41;5037954;28;20111;-74
2021/11/01 09:44:33;;;;;;;0.80;0.80;;;;;;;15.83;44.70;100341.81;4991909;28;20119;-74
2021/11/01 09:47:01;;;;;;;1.00;1.00;;;;;;;15.74;45.12;100335.50;5025997;28;20263;-73
2021/11/01 09:49:28;;;;;;;1.20;1.20;;;;;;;17.15;41.82;100349.72;5045252;28;20052;-74
2021/11/01 09:51:57;;;;;;;0.90;0.90;;;;;;;16.67;42.92;100346.03;5042578;28;20512;-74
2021/11/01 09:54:27;;;;;;;0.90;0.90;;;;;;;17.32;41.36;100336.81;5055270;28;20048;-73
2021/11/01 09:57:01;;;;;;;0.90;0.90;;;;;;;17.17;41.88;100338.59;5015592;28;20055;-74
2021/11/01 09:59:33;;;;;;;1.00;1.00;;;;;;;15.86;44.08;100341.47;5040487;28;20091;-74
2021/11/01 10:02:00;;;;;;;0.90;0.90;;;;;;;15.42;45.25;100333.50;5054517;28;20076;-74
2021/11/01 10:04:34;;;;;;;0.90;0.90;;;;;;;16.38;43.84;100335.69;5046368;28;20061;-74
2021/11/01 10:07:20;;;;;;;0.90;0.90;;;;;;;17.75;40.89;100342.72;5035369;28;20057;-74
2021/11/01 10:09:51;;;;;;;0.90;0.90;;;;;;;17.26;41.40;100326.63;5019588;28;20398;-74
2021/11/01 10:12:19;;;;;;;0.80;0.80;;;;;;;17.59;41.07;100333.59;5047886;28;20056;-75
2021/11/01 10:14:53;;;;;;;0.90;0.90;;;;;;;19.24;38.25;100325.63;5064195;28;20055;-73
2021/11/01 10:17:35;;;;;;;0.90;0.90;;;;;;;20.16;36.54;100335.97;5050313;28;20067;-74
2021/11/01 10:20:10;;;;;;;0.80;0.80;;;;;;;20.62;35.32;100333.66;5042656;28;20076;-74
2021/11/01 10:22:39;;;;;;;0.80;0.80;;;;;;;20.54;35.67;100332.94;5028715;28;20053;-75
2021/11/01 10:25:16;;;;;;;0.70;0.70;;;;;;;20.95;34.62;100317.38;5032467;28;20097;-74
2021/11/01 10:27:46;;;;;;;0.77;0.77;;;;;;;21.78;33.64;100328.31;5042989;28;20382;-74
2021/11/01 10:30:15;;;;;;;0.70;0.70;;;;;;;20.88;34.50;100321.97;5046649;28;20079;-73
2021/11/01 10:32:49;;;;;;;0.70;0.70;;;;;;;20.21;36.11;100316.97;5045331;28;20124;-73
2021/11/01 10:35:33;;;;;;;0.70;0.70;;;;;;;19.07;37.52;100307.66;5011929;28;20081;-76
2021/11/01 10:38:13;;;;;;;0.70;0.70;;;;;;;19.02;38.10;100317.31;5050868;28;20465;-78
2021/11/01 10:43:53;;;;;;;0.60;0.60;;;;;;;19.22;38.15;100311.25;5038808;28;20055;-76
2021/11/01 11:14:27;;;;;;;0.50;0.50;;;;;;;18.96;38.24;100287.94;5044620;28;20053;-74
2021/11/01 11:20:00;;;;;;;0.60;0.60;;;;;;;18.34;39.53;100284.66;5046995;28;20124;-75
2021/11/01 11:32:59;;;;;;;0.50;0.50;;;;;;;17.49;40.68;100275.56;5031902;28;20045;-74
2021/11/01 11:39:48;;;;;;;0.60;0.60;;;;;;;19.17;37.67;100269.84;5030957;28;20516;-75
2021/11/01 11:47:02;;;;;;;0.50;0.50;;;;;;;17.08;41.14;100272.22;5044505;28;20051;-74
2021/11/01 11:49:29;;;;;;;0.50;0.50;;;;;;;16.93;41.67;100263.03;5045523;28;20119;-75
2021/11/01 11:52:02;;;;;;;0.50;0.50;;;;;;;16.38;42.66;100264.72;5030520;28;20053;-74
2021/11/01 11:54:38;;;;;;;0.50;0.50;;;;;;;16.22;43.03;100264.75;5038702;28;20377;-74
2021/11/01 11:57:33;;;;;;;0.50;0.50;;;;;;;16.38;42.79;100259.25;5047057;28;20063;-69
2021/11/01 12:00:03;;;;;;;0.50;0.50;;;;;;;17.00;41.55;100264.91;5054892;28;20049;-74
2021/11/01 12:02:44;;;;;;;0.50;0.50;;;;;;;16.94;41.67;100262.88;5029038;28;20451;-69
2021/11/01 12:05:15;;;;;;;0.50;0.50;;;;;;;17.02;41.87;100262.84;5031134;28;20041;-68
2021/11/01 12:07:52;;;;;;;0.50;0.50;;;;;;;16.90;41.76;100252.50;5038567;28;20053;-69
2021/11/01 12:13:28;;;;;;;0.40;0.40;;;;;;;16.60;43.09;100253.09;5036776;28;20143;-68
2021/11/01 12:18:54;;;;;;;0.40;0.40;;;;;;;16.32;43.72;100249.06;5023357;28;20145;-68
2021/11/01 12:21:21;;;;;;;0.40;0.40;;;;;;;16.12;44.14;100249.44;5043543;28;20052;-68
2021/11/01 12:23:48;;;;;;;0.50;0.50;;;;;;;16.44;43.40;100247.66;5028867;28;20106;-69
2021/11/01 12:26:16;;;;;;;0.40;0.40;;;;;;;15.78;44.58;100248.78;5053919;28;20052;-69
2021/11/01 12:28:44;;;;;;;0.40;0.40;;;;;;;15.88;44.52;100254.91;5019119;28;20056;-69
2021/11/01 12:31:12;;;;;;;0.30;0.30;;;;;;;15.04;46.43;100243.19;5054772;28;20094;-69
2021/11/01 12:33:41;;;;;;;0.40;0.40;;;;;;;14.39;48.06;100240.13;5051853;28;20148;-70
2021/11/01 12:36:09;;;;;;;0.40;0.40;;;;;;;14.83;47.71;100245.47;5039006;28;20106;-74
2021/11/01 12:57:46;;;;;;;0.30;0.30;;;;;;;14.94;48.27;100245.19;5031799;28;20465;-69
2021/11/01 13:00:13;;;;;;;0.30;0.30;;;;;;;14.66;48.49;100239.09;5034511;28;20060;-69
2021/11/01 13:02:41;;;;;;;0.38;0.38;;;;;;;14.71;48.40;100236.75;5055256;28;20418;-69
2021/11/01 13:05:13;;;;;;;0.30;0.30;;;;;;;14.93;48.14;100241.59;5054317;28;20049;-69
2021/11/01 13:10:24;;;;;;;0.30;0.30;;;;;;;14.81;48.29;100239.34;5039880;28;20528;-72
2021/11/01 13:18:14;;;;;;;0.30;0.30;;;;;;;13.97;50.49;100255.34;5022215;28;20048;-68
2021/11/01 13:20:48;;;;;;;0.30;0.30;;;;;;;13.46;52.03;100239.78;5046946;28;20185;-68
2021/11/01 13:23:14;;;;;;;0.30;0.30;;;;;;;13.27;52.39;100238.03;5024199;28;20498;-68
2021/11/01 13:36:46;;;;;;;0.30;0.30;;;;;;;11.51;58.15;100252.34;5052449;28;20060;-68
2021/11/01 13:39:23;;;;;;;0.20;0.20;;;;;;;11.24;59.20;100251.19;5050012;28;20063;-67
2021/11/01 13:41:49;;;;;;;0.30;0.30;;;;;;;10.97;60.22;100256.38;5024159;28;20128;-69
2021/11/01 13:44:20;;;;;;;0.30;0.30;;;;;;;10.64;61.52;100239.53;5021378;28;20176;-68
2021/11/01 13:46:48;;;;;;;0.30;0.30;;;;;;;10.48;62.23;100247.28;5043925;28;20048;-69
2021/11/01 13:49:16;;;;;;;0.30;0.30;;;;;;;10.32;62.93;100236.97;5040000;28;20092;-68
2021/11/01 13:51:44;;;;;;;0.30;0.30;;;;;;;10.10;63.90;100229.88;5023110;28;20051;-68
2021/11/01 13:56:45;;;;;;;0.30;0.30;;;;;;;9.58;66.19;100245.13;5010041;28;20061;-69
2021/11/01 13:59:27;;;;;;;0.40;0.40;;;;;;;9.41;67.31;100242.03;5041918;28;20076;-68
2021/11/01 14:13:15;;;;;;;0.30;0.30;;;;;;;8.73;70.18;100231.56;5050857;28;20126;-68
2021/11/01 14:34:51;;;;;;;0.50;0.50;;;;;;;7.82;71.57;100227.97;5038014;28;20084;-68
2021/11/01 15:17:39;;;;;;;0.40;0.40;;;;;;;6.41;76.86;100227.81;5038689;28;20113;-68
2021/11/01 15:25:49;;;;;;;0.50;0.50;;;;;;;6.19;78.43;100235.69;5071513;28;20147;-68
2021/11/01 15:28:49;;;;;;;0.50;0.50;;;;;;;6.21;78.80;100234.59;5054239;28;20600;-68
2021/11/01 15:37:09;;;;;;;0.45;0.45;;;;;;;6.33;81.94;100235.56;5054287;28;20551;-68
2021/11/01 16:18:09;;;;;;;0.40;0.40;;;;;;;5.75;83.93;100237.78;5053550;28;20103;-68
2021/11/01 16:20:35;;;;;;;0.40;0.40;;;;;;;5.72;84.83;100231.78;5053560;28;20052;-68
2021/11/01 16:25:46;;;;;;;0.50;0.50;;;;;;;5.67;84.74;100234.78;5067011;28;20133;-69
2021/11/01 16:28:14;;;;;;;0.40;0.40;;;;;;;5.53;85.02;100227.69;5049473;28;20056;-68
2021/11/01 16:30:48;;;;;;;0.50;0.50;;;;;;;5.57;86.02;100234.56;5050685;28;20118;-68
2021/11/01 16:33:14;;;;;;;0.50;0.50;;;;;;;5.56;86.11;100232.84;5054731;28;20052;-69
2021/11/01 16:35:49;;;;;;;0.40;0.40;;;;;;;5.52;85.99;100223.28;5054979;28;20044;-68
2021/11/01 16:38:24;;;;;;;0.40;0.40;;;;;;;5.46;86.13;100231.75;5033135;28;20147;-69
2021/11/01 16:40:51;;;;;;;0.40;0.40;;;;;;;5.45;86.19;100238.09;5055126;28;20047;-69
2021/11/01 16:43:19;;;;;;;0.50;0.50;;;;;;;5.38;86.56;100223.38;5071244;28;20062;-68
2021/11/01 16:45:52;;;;;;;0.50;0.50;;;;;;;5.34;86.68;100235.28;5071951;28;20048;-69
2021/11/01 16:48:19;;;;;;;0.40;0.40;;;;;;;5.29;86.58;100234.69;5071604;28;20548;-69
2021/11/01 16:50:44;;;;;;;0.52;0.52;;;;;;;5.27;87.12;100231.28;5051843;28;20052;-69
2021/11/01 16:53:13;;;;;;;0.40;0.40;;;;;;;5.22;87.12;100233.41;5037173;28;20071;-69
2021/11/01 16:55:40;;;;;;;0.40;0.40;;;;;;;5.18;87.31;100231.88;5081008;28;20165;-69
2021/11/01 16:58:20;;;;;;;0.40;0.40;;;;;;;5.07;88.02;100233.44;5052137;28;20043;-70
2021/11/01 17:01:26;;;;;;;0.50;0.50;;;;;;;5.14;88.18;100235.72;5068514;28;20048;-69
2021/11/01 17:03:56;;;;;;;0.40;0.40;;;;;;;5.13;88.41;100240.25;5068573;28;20052;-72
2021/11/01 17:28:11;;;;;;;0.40;0.40;;;;;;;4.94;88.46;100237.94;5041348;28;20251;-70
2021/11/01 18:51:30;;;;;;;0.50;0.50;;;;;;;3.30;87.02;100233.94;5011989;28;20052;-68
2021/11/01 18:54:03;;;;;;;0.40;0.40;;;;;;;3.28;87.99;100243.84;5042064;28;20071;-68
2021/11/01 18:56:35;;;;;;;0.50;0.50;;;;;;;3.23;87.52;100246.78;5086943;28;20043;-67
2021/11/01 18:59:03;;;;;;;0.50;0.50;;;;;;;3.25;92.15;100238.66;5090871;28;20064;-68
2021/11/01 19:01:34;;;;;;;0.50;0.50;;;;;;;3.23;93.63;100241.44;5066085;28;20141;-68
2021/11/01 19:04:09;;;;;;;0.60;0.60;;;;;;;3.23;90.91;100245.94;5070958;28;20052;-68
2021/11/01 19:06:45;;;;;;;0.50;0.50;;;;;;;3.24;92.43;100259.19;5056614;28;20146;-69
2021/11/01 20:11:05;;;;;;;0.50;0.50;;;;;;;2.12;87.32;100273.50;5033393;28;20048;-69
2021/11/01 21:25:41;;;;;;;0.60;0.60;;;;;;;0.96;91.38;100312.28;5074162;28;20055;-74
2021/11/01 21:28:07;;;;;;;0.57;0.57;;;;;;;0.91;90.93;100313.41;5070495;28;20358;-75
2021/11/01 21:30:33;;;;;;;0.60;0.60;;;;;;;0.80;91.16;100305.09;5034008;28;20106;-75
2021/11/01 21:33:02;;;;;;;0.60;0.60;;;;;;;0.80;92.17;100307.75;5070819;28;20461;-74
2021/11/01 21:35:31;;;;;;;0.60;0.60;;;;;;;0.88;96.16;100297.63;5068276;28;20456;-73
2021/11/01 21:38:01;;;;;;;0.50;0.50;;;;;;;0.92;96.33;100304.50;5055821;28;20056;-75
2021/11/01 21:40:28;;;;;;;0.55;0.55;;;;;;;0.87;94.90;100306.50;5056829;28;20095;-75
2021/11/01 21:42:57;;;;;;;0.60;0.60;;;;;;;0.81;94.12;100286.41;5056607;28;20064;-76
2021/11/01 21:45:23;;;;;;;0.60;0.60;;;;;;;0.88;92.88;100294.97;5071493;28;20146;-75
2021/11/01 21:47:49;;;;;;;0.60;0.60;;;;;;;0.82;90.71;100292.59;5071672;28;20060;-74
2021/11/01 21:50:15;;;;;;;0.50;0.50;;;;;;;0.80;90.35;100294.44;5054489;28;20459;-77
2021/11/01 21:52:44;;;;;;;0.55;0.55;;;;;;;0.77;91.85;100290.16;5072498;28;20063;-76
2021/11/01 21:55:10;;;;;;;0.60;0.60;;;;;;;0.78;91.53;100283.88;5072997;28;20048;-75
2021/11/01 21:57:41;;;;;;;0.55;0.55;;;;;;;0.71;91.71;100285.97;5091469;28;20056;-73
2021/11/01 22:16:46;;;;;;;0.60;0.60;;;;;;;0.38;94.40;100283.09;5057914;28;20048;-77
2021/11/01 22:33:09;;;;;;;0.55;0.55;;;;;;;0.64;100.00;100276.56;5100503;28;20115;-73
2021/11/01 22:56:44;;;;;;;0.60;0.60;;;;;;;0.22;94.48;100269.66;5076007;28;20055;-74
2021/11/01 22:59:12;;;;;;;0.73;0.70;;;;;;;0.17;95.36;100263.69;5059953;28;20044;-75
2021/11/01 23:01:40;;;;;;;0.60;0.60;;;;;;;0.09;95.48;100260.50;5058626;28;20144;-73
2021/11/01 23:04:23;;;;;;;0.60;0.60;;;;;;;0.13;95.50;100269.22;5071008;28;20454;-75
2021/11/01 23:31:25;;;;;;;0.60;0.60;;;;;;;0.02;93.31;100266.19;5089685;28;20121;-73
2021/11/01 23:31:29;;;;;;;0.60;0.60;;;;;;;-0.14;93.46;100274.00;5074207;28;20062;-73
2021/11/01 23:33:58;;;;;;;0.60;0.60;;;;;;;-0.14;92.85;100274.00;5093560;28;20104;-74
2021/11/01 23:36:24;;;;;;;0.60;0.60;;;;;;;-0.16;93.84;100286.47;5074636;28;20063;-73
2021/11/01 23:38:53;;;;;;;1.30;0.90;;;;;;;-0.18;97.02;100278.56;5091312;28;20044;-74
2021/11/01 23:41:20;;;;;;;0.85;0.85;;;;;;;-0.18;97.30;100272.38;5074074;28;20574;-75